Time;durP1;ratioP1;P1;durP2;ratioP2;P2;SDS_P1;SDS_P2;PMS_P1;PMS_P2;Temp;Humidity;BMP_temperature;BMP_pressure;BME280_temperature;BME280_humidity;BME280_pressure;Samples;Min_cycle;Max_cycle;Signal;HPM_P1;HPM_P2
2022/12/13 00:02:05;;;;;;;;;;;;;;;;;;2199507;67;1066;-71
2022/12/13 00:04:39;;;;;;;;;;;;;;;;;;2199625;67;1014;-71
2022/12/13 00:07:12;;;;;;;;;;;;;;;;;;2198751;59;1985;-71
2022/12/13 00:09:45;;;;;;;;;;;;;;;;;;2199002;59;1356;-71
2022/12/13 00:12:18;;;;;;;;;;;;;;;;;;2199295;59;1220;-71
2022/12/13 00:14:51;;;;;;;;;;;;;;;;;;2199879;59;1605;-71
2022/12/13 00:17:27;;;;;;;;;;;;;;;;;;2199305;59;1195;-71
2022/12/13 00:20:00;;;;;;;;;;;;;;;;;;2199088;59;1673;-72
2022/12/13 00:22:33;;;;;;;;;;;;;;;;;;2199612;67;1144;-71
2022/12/13 00:25:07;;;;;;;;;;;;;;;;;;2199754;59;1162;-72
2022/12/13 00:27:40;;;;;;;;;;;;;;;;;;2199688;59;1937;-71
2022/12/13 00:30:13;;;;;;;;;;;;;;;;;;2198971;59;2015;-71
2022/12/13 00:32:49;;;;;;;;;;;;;;;;;;2199780;67;1149;-71
2022/12/13 00:35:22;;;;;;;;;;;;;;;;;;2199607;59;1250;-71
2022/12/13 00:37:55;;;;;;;;;;;;;;;;;;2198948;59;1110;-72
2022/12/13 00:40:30;;;;;;;;;;;;;;;;;;2199719;67;1233;-71
2022/12/13 00:43:03;;;;;;;;;;;;;;;;;;2198256;67;1125;-71
2022/12/13 00:45:37;;;;;;;;;;;;;;;;;;2199949;59;1120;-71
2022/12/13 00:48:13;;;;;;;;;;;;;;;;;;2199382;67;2392;-71
2022/12/13 00:50:46;;;;;;;;;;;;;;;;;;2198944;67;1241;-71
2022/12/13 00:53:19;;;;;;;;;;;;;;;;;;2198678;67;1229;-71
2022/12/13 00:55:52;;;;;;;;;;;;;;;;;;2199081;67;1078;-71
2022/12/13 00:58:25;;;;;;;;;;;;;;;;;;2199310;67;1247;-71
2022/12/13 01:01:04;;;;;;;;;;;;;;;;;;2198685;67;1179;-72
2022/12/13 01:03:41;;;;;;;;;;;;;;;;;;2199428;59;1183;-71
2022/12/13 01:06:15;;;;;;;;;;;;;;;;;;2198592;59;1178;-71
2022/12/13 01:08:48;;;;;;;;;;;;;;;;;;2199594;67;1157;-71
2022/12/13 01:11:22;;;;;;;;;;;;;;;;;;2198467;59;1723;-71
2022/12/13 01:13:55;;;;;;;;;;;;;;;;;;2198710;59;1274;-71
2022/12/13 01:16:28;;;;;;;;;;;;;;;;;;2199318;59;1671;-71
2022/12/13 01:19:04;;;;;;;;;;;;;;;;;;2199261;59;1236;-71
2022/12/13 01:21:37;;;;;;;;;;;;;;;;;;2199427;59;2062;-71
2022/12/13 01:24:10;;;;;;;;;;;;;;;;;;2198828;67;1033;-72
2022/12/13 01:26:43;;;;;;;;;;;;;;;;;;2199568;59;1932;-71
2022/12/13 01:29:17;;;;;;;;;;;;;;;;;;2199000;59;1738;-71
2022/12/13 01:31:50;;;;;;;;;;;;;;;;;;2199301;59;1305;-72
2022/12/13 01:34:26;;;;;;;;;;;;;;;;;;2199723;59;1539;-72
2022/12/13 01:36:59;;;;;;;;;;;;;;;;;;2198861;59;1168;-71
2022/12/13 01:39:33;;;;;;;;;;;;;;;;;;2199491;67;1215;-71
2022/12/13 01:42:06;;;;;;;;;;;;;;;;;;2198447;67;1211;-72
2022/12/13 01:44:57;;;;;;;;;;;;;;;;;;2199556;67;1289;-71
2022/12/13 01:47:34;;;;;;;;;;;;;;;;;;2198674;59;2204;-71
2022/12/13 01:50:11;;;;;;;;;;;;;;;;;;2198702;67;1286;-71
2022/12/13 01:52:46;;;;;;;;;;;;;;;;;;2199528;67;1203;-71
2022/12/13 01:55:20;;;;;;;;;;;;;;;;;;2199839;67;1027;-71
2022/12/13 01:57:53;;;;;;;;;;;;;;;;;;2195649;67;2070;-71
2022/12/13 02:00:27;;;;;;;;;;;;;;;;;;2198897;59;1276;-71
2022/12/13 02:03:01;;;;;;;;;;;;;;;;;;2198891;67;1165;-72
2022/12/13 02:05:38;;;;;;;;;;;;;;;;;;2199422;67;1081;-71
2022/12/13 02:08:13;;;;;;;;;;;;;;;;;;2194275;67;1984;-71
2022/12/13 02:10:47;;;;;;;;;;;;;;;;;;2198846;59;1384;-71
2022/12/13 02:13:20;;;;;;;;;;;;;;;;;;2199056;59;1424;-72
2022/12/13 02:15:59;;;;;;;;;;;;;;;;;;2199363;59;1660;-71
2022/12/13 02:18:40;;;;;;;;;;;;;;;;;;2199195;59;1388;-71
2022/12/13 02:21:29;;;;;;;;;;;;;;;;;;2198148;67;1269;-71
2022/12/13 02:24:30;;;;;;;;;;;;;;;;;;2198924;67;1097;-71
2022/12/13 02:27:11;;;;;;;;;;;;;;;;;;2198462;67;1925;-71
2022/12/13 02:30:02;;;;;;;;;;;;;;;;;;2199652;59;1735;-71
2022/12/13 02:32:41;;;;;;;;;;;;;;;;;;2199294;67;1165;-71
2022/12/13 02:35:19;;;;;;;;;;;;;;;;;;2198699;59;1502;-71
2022/12/13 02:37:57;;;;;;;;;;;;;;;;;;2199970;59;1129;-71
2022/12/13 02:40:33;;;;;;;;;;;;;;;;;;2199509;67;1225;-71
2022/12/13 02:43:09;;;;;;;;;;;;;;;;;;2198347;59;1246;-71
2022/12/13 02:45:46;;;;;;;;;;;;;;;;;;2199224;59;1226;-72
2022/12/13 02:48:25;;;;;;;;;;;;;;;;;;2198881;59;2125;-71
2022/12/13 02:51:00;;;;;;;;;;;;;;;;;;2199759;67;1272;-72
2022/12/13 02:53:33;;;;;;;;;;;;;;;;;;2199392;67;1239;-71
2022/12/13 02:56:07;;;;;;;;;;;;;;;;;;2199169;67;1181;-71
2022/12/13 02:58:43;;;;;;;;;;;;;;;;;;2199754;59;1236;-71
2022/12/13 03:01:23;;;;;;;;;;;;;;;;;;2199493;67;1138;-71
2022/12/13 03:04:03;;;;;;;;;;;;;;;;;;2199278;67;1094;-71
2022/12/13 03:06:42;;;;;;;;;;;;;;;;;;2199753;67;1094;-72
2022/12/13 03:14:56;;;;;;;;;;;;;;;;;;2196265;59;1681;-73
2022/12/13 03:17:31;;;;;;;;;;;;;;;;;;2196017;59;1337;-73
2022/12/13 03:20:08;;;;;;;;;;;;;;;;;;2197629;67;1256;-73
2022/12/13 03:22:41;;;;;;;;;;;;;;;;;;2195436;67;1497;-73
2022/12/13 03:25:14;;;;;;;;;;;;;;;;;;2196855;59;1253;-73
2022/12/13 03:27:47;;;;;;;;;;;;;;;;;;2199977;59;1984;-73
2022/12/13 03:30:21;;;;;;;;;;;;;;;;;;2198672;67;1229;-73
2022/12/13 03:32:54;;;;;;;;;;;;;;;;;;2196195;59;1193;-73
2022/12/13 03:35:30;;;;;;;;;;;;;;;;;;2199171;59;1233;-73
2022/12/13 03:38:04;;;;;;;;;;;;;;;;;;2199534;59;1120;-73
2022/12/13 03:40:37;;;;;;;;;;;;;;;;;;2198952;67;1153;-73
2022/12/13 03:43:11;;;;;;;;;;;;;;;;;;2199394;59;1156;-73
2022/12/13 03:45:44;;;;;;;;;;;;;;;;;;2199560;59;1187;-73
2022/12/13 03:48:17;;;;;;;;;;;;;;;;;;2199138;59;2219;-73
2022/12/13 03:50:54;;;;;;;;;;;;;;;;;;2199364;67;1175;-73
2022/12/13 03:53:27;;;;;;;;;;;;;;;;;;2199175;67;1070;-73
2022/12/13 03:56:01;;;;;;;;;;;;;;;;;;2200236;59;1247;-73
2022/12/13 03:58:35;;;;;;;;;;;;;;;;;;2200669;67;1092;-73
2022/12/13 04:01:09;;;;;;;;;;;;;;;;;;2199504;67;1318;-73
2022/12/13 04:03:44;;;;;;;;;;;;;;;;;;2199618;59;1020;-73
2022/12/13 04:06:20;;;;;;;;;;;;;;;;;;2200062;67;1303;-73
2022/12/13 04:08:53;;;;;;;;;;;;;;;;;;2199276;67;1942;-73
2022/12/13 04:14:15;;;;;;;;;;;;;;;;;;2195965;59;1569;-73
2022/12/13 04:16:48;;;;;;;;;;;;;;;;;;2200469;59;1584;-73
2022/12/13 04:19:22;;;;;;;;;;;;;;;;;;2199508;67;1310;-73
2022/12/13 04:21:58;;;;;;;;;;;;;;;;;;2199903;67;1118;-73
2022/12/13 04:24:31;;;;;;;;;;;;;;;;;;2199295;59;1292;-73
2022/12/13 04:27:04;;;;;;;;;;;;;;;;;;2199200;59;1148;-73
2022/12/13 04:29:37;;;;;;;;;;;;;;;;;;2199207;59;1940;-73
2022/12/13 04:32:11;;;;;;;;;;;;;;;;;;2199178;67;1072;-73
2022/12/13 04:34:44;;;;;;;;;;;;;;;;;;2199725;59;1162;-73
2022/12/13 04:37:20;;;;;;;;;;;;;;;;;;2199357;67;1165;-73
2022/12/13 04:39:53;;;;;;;;;;;;;;;;;;2199560;59;1263;-73
2022/12/13 04:42:26;;;;;;;;;;;;;;;;;;2201861;59;2680;-73
2022/12/13 04:44:59;;;;;;;;;;;;;;;;;;2202128;59;1272;-73
2022/12/13 04:47:32;;;;;;;;;;;;;;;;;;2201654;59;2119;-73
2022/12/13 04:50:06;;;;;;;;;;;;;;;;;;2201066;59;1467;-73
2022/12/13 04:52:42;;;;;;;;;;;;;;;;;;2200522;60;1244;-73
2022/12/13 04:55:16;;;;;;;;;;;;;;;;;;2200197;59;1338;-73
2022/12/13 04:57:49;;;;;;;;;;;;;;;;;;2200475;59;1137;-73
2022/12/13 05:00:22;;;;;;;;;;;;;;;;;;2199776;67;1296;-73
2022/12/13 05:02:55;;;;;;;;;;;;;;;;;;2199748;60;1112;-72
2022/12/13 05:05:29;;;;;;;;;;;;;;;;;;2200254;59;1258;-73
2022/12/13 05:08:04;;;;;;;;;;;;;;;;;;2200005;67;1979;-73
2022/12/13 05:10:39;;;;;;;;;;;;;;;;;;2199173;59;1276;-73
2022/12/13 05:13:12;;;;;;;;;;;;;;;;;;2199601;59;1121;-73
2022/12/13 05:15:45;;;;;;;;;;;;;;;;;;2199818;59;1630;-73
2022/12/13 05:18:18;;;;;;;;;;;;;;;;;;2199527;59;2040;-73
2022/12/13 05:20:51;;;;;;;;;;;;;;;;;;2199497;59;1342;-73
2022/12/13 05:23:27;;;;;;;;;;;;;;;;;;2200114;59;1189;-73
2022/12/13 05:26:01;;;;;;;;;;;;;;;;;;2199923;59;1373;-73
2022/12/13 05:28:34;;;;;;;;;;;;;;;;;;2199433;59;1989;-72
2022/12/13 05:31:09;;;;;;;;;;;;;;;;;;2199284;67;1187;-73
2022/12/13 05:33:42;;;;;;;;;;;;;;;;;;2199768;59;1192;-73
2022/12/13 05:36:15;;;;;;;;;;;;;;;;;;2199476;59;1056;-73
2022/12/13 05:38:51;;;;;;;;;;;;;;;;;;2196769;59;1257;-73
2022/12/13 05:41:25;;;;;;;;;;;;;;;;;;2199243;59;1238;-73
2022/12/13 05:43:59;;;;;;;;;;;;;;;;;;2199584;59;1169;-73
2022/12/13 05:46:32;;;;;;;;;;;;;;;;;;2199129;59;1112;-73
2022/12/13 05:49:05;;;;;;;;;;;;;;;;;;2198886;59;2405;-73
2022/12/13 05:51:38;;;;;;;;;;;;;;;;;;2199690;59;1322;-73
2022/12/13 05:54:14;;;;;;;;;;;;;;;;;;2195478;67;1187;-73
2022/12/13 05:56:47;;;;;;;;;;;;;;;;;;2200104;67;1030;-73
2022/12/13 05:59:20;;;;;;;;;;;;;;;;;;2198883;59;1235;-73
2022/12/13 06:01:54;;;;;;;;;;;;;;;;;;2199757;67;1051;-73
2022/12/13 06:04:27;;;;;;;;;;;;;;;;;;2199219;60;1126;-73
2022/12/13 06:07:00;;;;;;;;;;;;;;;;;;2199362;67;1188;-73
2022/12/13 06:09:36;;;;;;;;;;;;;;;;;;2199240;59;1979;-73
2022/12/13 06:12:09;;;;;;;;;;;;;;;;;;2199383;59;1224;-73
2022/12/13 06:14:42;;;;;;;;;;;;;;;;;;2199684;59;1644;-73
2022/12/13 06:17:15;;;;;;;;;;;;;;;;;;2199320;59;1566;-73
2022/12/13 06:19:49;;;;;;;;;;;;;;;;;;2199562;67;1265;-73
2022/12/13 06:22:22;;;;;;;;;;;;;;;;;;2200175;59;1266;-73
2022/12/13 06:24:58;;;;;;;;;;;;;;;;;;2200270;59;1182;-73
2022/12/13 06:27:31;;;;;;;;;;;;;;;;;;2200201;59;1799;-73
2022/12/13 06:30:04;;;;;;;;;;;;;;;;;;2199670;59;2001;-73
2022/12/13 06:32:37;;;;;;;;;;;;;;;;;;2200357;59;1278;-73
2022/12/13 06:35:11;;;;;;;;;;;;;;;;;;2199578;59;1321;-72
2022/12/13 06:37:44;;;;;;;;;;;;;;;;;;2199291;59;1136;-72
2022/12/13 06:40:20;;;;;;;;;;;;;;;;;;2196003;60;1801;-72
2022/12/13 06:42:54;;;;;;;;;;;;;;;;;;2199780;67;1202;-73
2022/12/13 06:45:27;;;;;;;;;;;;;;;;;;2197050;59;1424;-72
2022/12/13 06:48:01;;;;;;;;;;;;;;;;;;2200105;59;2246;-73
2022/12/13 06:50:34;;;;;;;;;;;;;;;;;;2200589;59;2015;-73
2022/12/13 06:53:07;;;;;;;;;;;;;;;;;;2200468;67;1152;-73
2022/12/13 06:55:43;;;;;;;;;;;;;;;;;;2200584;67;1118;-74
2022/12/13 06:58:16;;;;;;;;;;;;;;;;;;2199612;67;1101;-73
2022/12/13 07:00:49;;;;;;;;;;;;;;;;;;2199783;67;1304;-73
2022/12/13 07:03:22;;;;;;;;;;;;;;;;;;2200205;67;1118;-73
2022/12/13 07:05:55;;;;;;;;;;;;;;;;;;2200551;67;1009;-73
2022/12/13 07:08:28;;;;;;;;;;;;;;;;;;2200033;59;1924;-72
2022/12/13 07:11:04;;;;;;;;;;;;;;;;;;2200216;59;1253;-72
2022/12/13 07:13:38;;;;;;;;;;;;;;;;;;2199187;67;1161;-73
2022/12/13 07:16:11;;;;;;;;;;;;;;;;;;2196607;59;1648;-73
2022/12/13 07:18:44;;;;;;;;;;;;;;;;;;2201356;59;1163;-73
2022/12/13 07:21:18;;;;;;;;;;;;;;;;;;2199417;60;1264;-73
2022/12/13 07:23:52;;;;;;;;;;;;;;;;;;2200375;67;1134;-73
2022/12/13 07:26:27;;;;;;;;;;;;;;;;;;2200519;59;1189;-73
2022/12/13 07:29:01;;;;;;;;;;;;;;;;;;2200202;59;2032;-73
2022/12/13 07:31:37;;;;;;;;;;;;;;;;;;2200676;67;1296;-73
2022/12/13 07:34:10;;;;;;;;;;;;;;;;;;2200327;59;1216;-73
2022/12/13 07:36:44;;;;;;;;;;;;;;;;;;2196864;59;1423;-73
2022/12/13 07:39:17;;;;;;;;;;;;;;;;;;2200220;59;1251;-73
2022/12/13 07:41:54;;;;;;;;;;;;;;;;;;2196841;67;1259;-73
2022/12/13 07:44:27;;;;;;;;;;;;;;;;;;2200470;67;1134;-73
2022/12/13 07:47:00;;;;;;;;;;;;;;;;;;2200487;59;2171;-73
2022/12/13 07:49:34;;;;;;;;;;;;;;;;;;2202445;59;1917;-73
2022/12/13 07:52:11;;;;;;;;;;;;;;;;;;2203203;67;1097;-72
2022/12/13 07:54:44;;;;;;;;;;;;;;;;;;2202586;67;1111;-73
2022/12/13 07:57:20;;;;;;;;;;;;;;;;;;2196385;59;1822;-72
2022/12/13 07:59:53;;;;;;;;;;;;;;;;;;2199917;59;1282;-73
2022/12/13 08:02:26;;;;;;;;;;;;;;;;;;2200127;67;1145;-73
2022/12/13 08:05:00;;;;;;;;;;;;;;;;;;2199088;67;1134;-73
2022/12/13 08:07:33;;;;;;;;;;;;;;;;;;2200252;67;984;-73
2022/12/13 08:10:06;;;;;;;;;;;;;;;;;;2200418;59;1902;-73
2022/12/13 08:12:42;;;;;;;;;;;;;;;;;;2196643;59;1232;-73
2022/12/13 08:15:16;;;;;;;;;;;;;;;;;;2200321;59;1525;-73
2022/12/13 08:17:49;;;;;;;;;;;;;;;;;;2196374;59;1934;-73
2022/12/13 08:20:22;;;;;;;;;;;;;;;;;;2200520;59;1516;-73
2022/12/13 08:22:56;;;;;;;;;;;;;;;;;;2198373;59;1767;-73
2022/12/13 08:25:29;;;;;;;;;;;;;;;;;;2200109;59;1457;-73
2022/12/13 08:28:05;;;;;;;;;;;;;;;;;;2199021;59;1997;-73
2022/12/13 08:30:38;;;;;;;;;;;;;;;;;;2199980;67;1925;-73
2022/12/13 08:33:11;;;;;;;;;;;;;;;;;;2199810;59;1685;-73
2022/12/13 08:35:44;;;;;;;;;;;;;;;;;;2198997;59;1662;-73
2022/12/13 08:38:18;;;;;;;;;;;;;;;;;;2200130;59;1141;-74
2022/12/13 08:40:51;;;;;;;;;;;;;;;;;;2200384;59;1249;-73
2022/12/13 08:43:27;;;;;;;;;;;;;;;;;;2199121;67;1035;-73
2022/12/13 08:46:00;;;;;;;;;;;;;;;;;;2199706;59;1227;-74
2022/12/13 08:48:34;;;;;;;;;;;;;;;;;;2199479;59;2116;-73
2022/12/13 08:51:08;;;;;;;;;;;;;;;;;;2200577;59;1987;-73
2022/12/13 08:53:41;;;;;;;;;;;;;;;;;;2199027;67;1144;-73
2022/12/13 08:56:16;;;;;;;;;;;;;;;;;;2196004;59;1744;-73
2022/12/13 08:58:53;;;;;;;;;;;;;;;;;;2198332;59;1985;-73
2022/12/13 09:01:26;;;;;;;;;;;;;;;;;;2199609;67;1256;-73
2022/12/13 09:03:59;;;;;;;;;;;;;;;;;;2199926;59;1492;-73
2022/12/13 09:06:32;;;;;;;;;;;;;;;;;;2198433;59;1240;-74
2022/12/13 09:09:06;;;;;;;;;;;;;;;;;;2200283;59;2236;-74
2022/12/13 09:11:40;;;;;;;;;;;;;;;;;;2195820;59;2086;-72
2022/12/13 09:14:16;;;;;;;;;;;;;;;;;;2193559;59;1927;-72
2022/12/13 09:16:49;;;;;;;;;;;;;;;;;;2196131;59;1364;-72
2022/12/13 09:19:24;;;;;;;;;;;;;;;;;;2194940;59;1649;-72
2022/12/13 09:21:57;;;;;;;;;;;;;;;;;;2195217;67;1208;-71
2022/12/13 09:24:30;;;;;;;;;;;;;;;;;;2192308;59;1683;-72
2022/12/13 09:27:03;;;;;;;;;;;;;;;;;;2190495;59;12241;-71
2022/12/13 09:29:39;;;;;;;;;;;;;;;;;;2190311;59;18209;-71
2022/12/13 09:32:13;;;;;;;;;;;;;;;;;;2193230;59;16821;-72
2022/12/13 09:34:46;;;;;;;;;;;;;;;;;;2190800;59;14705;-71
2022/12/13 09:40:27;;;;;;;;;;;;;;;;;;2190705;65;14545;-72
2022/12/13 09:43:01;;;;;;;;;;;;;;;;;;2192330;59;19207;-72
2022/12/13 09:45:38;;;;;;;;;;;;;;;;;;2192258;59;12690;-71
2022/12/13 09:48:12;;;;;;;;;;;;;;;;;;2192690;59;12400;-71
2022/12/13 09:50:46;;;;;;;;;;;;;;;;;;2192328;59;12008;-72
2022/12/13 09:53:21;;;;;;;;;;;;;;;;;;2193384;59;12451;-72
2022/12/13 09:55:54;;;;;;;;;;;;;;;;;;2191826;59;11800;-72
2022/12/13 09:58:30;;;;;;;;;;;;;;;;;;2191708;59;18341;-72
2022/12/13 10:01:06;;;;;;;;;;;;;;;;;;2190785;67;12887;-72
2022/12/13 10:03:49;;;;;;;;;;;;;;;;;;2192697;59;11673;-72
2022/12/13 10:06:23;;;;;;;;;;;;;;;;;;2192803;59;12171;-72
2022/12/13 10:08:58;;;;;;;;;;;;;;;;;;2190901;59;13828;-72
2022/12/13 10:11:32;;;;;;;;;;;;;;;;;;2191507;59;32683;-72
2022/12/13 10:14:07;;;;;;;;;;;;;;;;;;2192197;59;12723;-71
2022/12/13 10:16:45;;;;;;;;;;;;;;;;;;2191418;59;19023;-72
2022/12/13 10:19:21;;;;;;;;;;;;;;;;;;2193357;59;17177;-71
2022/12/13 10:21:54;;;;;;;;;;;;;;;;;;2192653;59;12813;-72
2022/12/13 10:24:29;;;;;;;;;;;;;;;;;;2192249;59;14653;-71
2022/12/13 10:27:13;;;;;;;;;;;;;;;;;;2191313;59;12360;-71
2022/12/13 10:30:01;;;;;;;;;;;;;;;;;;2192814;59;20272;-72
2022/12/13 10:32:44;;;;;;;;;;;;;;;;;;2190722;59;12734;-71
2022/12/13 10:35:23;;;;;;;;;;;;;;;;;;2191183;59;11671;-72
2022/12/13 10:37:57;;;;;;;;;;;;;;;;;;2187337;59;32537;-72
2022/12/13 10:40:34;;;;;;;;;;;;;;;;;;2189512;59;11714;-72
2022/12/13 10:43:14;;;;;;;;;;;;;;;;;;2191950;59;12870;-72
2022/12/13 10:45:59;;;;;;;;;;;;;;;;;;2192595;59;12031;-72
2022/12/13 10:48:38;;;;;;;;;;;;;;;;;;2192391;59;34832;-72
2022/12/13 10:51:13;;;;;;;;;;;;;;;;;;2192550;59;11824;-72
2022/12/13 10:53:48;;;;;;;;;;;;;;;;;;2192978;59;11691;-72
2022/12/13 10:56:22;;;;;;;;;;;;;;;;;;2188964;67;16157;-72
2022/12/13 10:59:11;;;;;;;;;;;;;;;;;;2191916;59;11617;-72
2022/12/13 11:01:44;;;;;;;;;;;;;;;;;;2191768;59;27113;-72
2022/12/13 11:04:26;;;;;;;;;;;;;;;;;;2192305;59;11790;-72
2022/12/13 11:07:01;;;;;;;;;;;;;;;;;;2191635;59;13139;-71
2022/12/13 11:09:35;;;;;;;;;;;;;;;;;;2193386;59;14284;-72
2022/12/13 11:12:15;;;;;;;;;;;;;;;;;;2191539;59;12124;-72
2022/12/13 11:14:51;;;;;;;;;;;;;;;;;;2192691;59;11669;-72
2022/12/13 11:17:26;;;;;;;;;;;;;;;;;;2191856;59;25685;-72
2022/12/13 11:20:04;;;;;;;;;;;;;;;;;;2192445;59;11950;-72
2022/12/13 11:22:39;;;;;;;;;;;;;;;;;;2192526;59;20776;-72
2022/12/13 11:25:21;;;;;;;;;;;;;;;;;;2192884;64;18438;-72
2022/12/13 11:28:04;;;;;;;;;;;;;;;;;;2190247;59;12431;-72
2022/12/13 11:30:39;;;;;;;;;;;;;;;;;;2192436;64;12885;-72
2022/12/13 11:33:20;;;;;;;;;;;;;;;;;;2192639;59;12543;-72
2022/12/13 11:36:02;;;;;;;;;;;;;;;;;;2192837;59;11643;-72
2022/12/13 11:38:39;;;;;;;;;;;;;;;;;;2191316;59;28689;-72
2022/12/13 11:41:16;;;;;;;;;;;;;;;;;;2191653;59;11757;-72
2022/12/13 11:43:52;;;;;;;;;;;;;;;;;;2192384;59;19428;-72
2022/12/13 11:46:31;;;;;;;;;;;;;;;;;;2193773;59;14990;-72
2022/12/13 11:49:06;;;;;;;;;;;;;;;;;;2192576;59;21672;-72
2022/12/13 11:51:44;;;;;;;;;;;;;;;;;;2192995;59;12021;-72
2022/12/13 11:54:22;;;;;;;;;;;;;;;;;;2193304;59;20994;-72
2022/12/13 11:56:59;;;;;;;;;;;;;;;;;;2188640;59;12645;-72
2022/12/13 11:59:35;;;;;;;;;;;;;;;;;;2193393;59;12199;-72
2022/12/13 12:02:13;;;;;;;;;;;;;;;;;;2193573;59;11609;-72
2022/12/13 12:04:48;;;;;;;;;;;;;;;;;;2190877;59;11608;-72
2022/12/13 12:07:26;;;;;;;;;;;;;;;;;;2189391;59;11946;-72
2022/12/13 12:10:05;;;;;;;;;;;;;;;;;;2191917;59;13269;-72
2022/12/13 12:12:40;;;;;;;;;;;;;;;;;;2192852;59;23039;-72
2022/12/13 12:15:16;;;;;;;;;;;;;;;;;;2193658;59;26558;-72
2022/12/13 12:17:50;;;;;;;;;;;;;;;;;;2192977;59;11788;-72
2022/12/13 12:20:27;;;;;;;;;;;;;;;;;;2193650;67;27219;-72
2022/12/13 12:23:09;;;;;;;;;;;;;;;;;;2190463;59;12241;-72
2022/12/13 12:25:46;;;;;;;;;;;;;;;;;;2189456;59;25406;-72
2022/12/13 12:28:26;;;;;;;;;;;;;;;;;;2189291;59;27200;-72
2022/12/13 12:31:03;;;;;;;;;;;;;;;;;;2192015;59;13897;-72
2022/12/13 12:33:40;;;;;;;;;;;;;;;;;;2192755;59;14412;-72
2022/12/13 12:36:27;;;;;;;;;;;;;;;;;;2193478;59;12867;-72
2022/12/13 12:39:11;;;;;;;;;;;;;;;;;;2191874;59;12753;-72
2022/12/13 12:41:51;;;;;;;;;;;;;;;;;;2188603;59;12532;-72
2022/12/13 12:44:33;;;;;;;;;;;;;;;;;;2191528;59;31249;-72
2022/12/13 12:47:13;;;;;;;;;;;;;;;;;;2192529;59;15773;-72
2022/12/13 12:49:58;;;;;;;;;;;;;;;;;;2192889;59;12598;-72
2022/12/13 12:52:39;;;;;;;;;;;;;;;;;;2193183;59;11877;-71
2022/12/13 12:55:20;;;;;;;;;;;;;;;;;;2191684;59;23609;-72
2022/12/13 12:57:58;;;;;;;;;;;;;;;;;;2193196;59;14254;-72
2022/12/13 13:00:35;;;;;;;;;;;;;;;;;;2194102;59;12882;-72
2022/12/13 13:03:15;;;;;;;;;;;;;;;;;;2192384;59;16021;-72
2022/12/13 13:05:51;;;;;;;;;;;;;;;;;;2192464;67;11556;-72
2022/12/13 13:08:25;;;;;;;;;;;;;;;;;;2190342;59;12333;-72
2022/12/13 13:11:02;;;;;;;;;;;;;;;;;;2192374;59;16829;-72
2022/12/13 13:13:37;;;;;;;;;;;;;;;;;;2192426;59;12412;-72
2022/12/13 13:16:29;;;;;;;;;;;;;;;;;;2194242;59;11814;-72
2022/12/13 13:19:03;;;;;;;;;;;;;;;;;;2192921;59;17645;-72
2022/12/13 13:21:46;;;;;;;;;;;;;;;;;;2190636;59;12079;-72
2022/12/13 13:24:24;;;;;;;;;;;;;;;;;;2192677;67;13312;-72
2022/12/13 13:27:01;;;;;;;;;;;;;;;;;;2192919;59;13534;-72
2022/12/13 13:29:39;;;;;;;;;;;;;;;;;;2192763;59;15288;-73
2022/12/13 13:32:28;;;;;;;;;;;;;;;;;;2192518;59;12793;-72
2022/12/13 13:35:16;;;;;;;;;;;;;;;;;;2188982;59;19029;-71
2022/12/13 13:37:50;;;;;;;;;;;;;;;;;;2193433;59;12008;-72
2022/12/13 13:40:34;;;;;;;;;;;;;;;;;;2187273;59;12956;-72
2022/12/13 13:43:18;;;;;;;;;;;;;;;;;;2190708;59;12827;-72
2022/12/13 13:45:55;;;;;;;;;;;;;;;;;;2193853;59;26677;-72
2022/12/13 13:48:35;;;;;;;;;;;;;;;;;;2193653;59;11777;-72
2022/12/13 13:51:35;;;;;;;;;;;;;;;;;;2236764;54;1818010;-72
2022/12/13 13:54:26;;;;;;;;;;;;;;;;;;2185080;59;11869;-72
2022/12/13 13:57:29;;;;;;;;;;;;;;;;;;2192189;67;16003;-72
2022/12/13 14:00:30;;;;;;;;;;;;;;;;;;2180290;59;26445;-72
2022/12/13 14:06:21;;;;;;;;;;;;;;;;;;2103805;57;73662;-78
2022/12/13 14:09:15;;;;;;;;;;;;;;;;;;2193377;59;26237;-79
2022/12/13 14:12:15;;;;;;;;;;;;;;;;;;2193964;64;27304;-78
2022/12/13 14:15:04;;;;;;;;;;;;;;;;;;2194320;59;21502;-79
2022/12/13 14:17:57;;;;;;;;;;;;;;;;;;2194609;59;38651;-78
2022/12/13 14:20:44;;;;;;;;;;;;;;;;;;2194783;59;18455;-77
2022/12/13 14:23:30;;;;;;;;;;;;;;;;;;2191026;64;18902;-79
2022/12/13 14:26:13;;;;;;;;;;;;;;;;;;2191940;59;21719;-79
2022/12/13 14:28:51;;;;;;;;;;;;;;;;;;2193153;59;21297;-78
2022/12/13 14:31:26;;;;;;;;;;;;;;;;;;2193866;59;23724;-79
2022/12/13 14:34:02;;;;;;;;;;;;;;;;;;2186294;59;75434;-77
2022/12/13 14:36:41;;;;;;;;;;;;;;;;;;2191946;59;63687;-78
2022/12/13 14:39:17;;;;;;;;;;;;;;;;;;2190022;59;19170;-79
2022/12/13 14:41:54;;;;;;;;;;;;;;;;;;2117691;59;2555252;-78
2022/12/13 14:44:29;;;;;;;;;;;;;;;;;;2191479;59;74688;-78
2022/12/13 14:47:03;;;;;;;;;;;;;;;;;;2193320;59;24306;-78
2022/12/13 14:49:42;;;;;;;;;;;;;;;;;;2192259;59;21687;-79
2022/12/13 14:52:23;;;;;;;;;;;;;;;;;;2193266;64;21391;-78
2022/12/13 14:54:58;;;;;;;;;;;;;;;;;;2188271;64;20709;-78
2022/12/13 14:57:36;;;;;;;;;;;;;;;;;;2191785;59;60841;-78
2022/12/13 15:00:28;;;;;;;;;;;;;;;;;;2192921;64;29410;-78
2022/12/13 15:03:04;;;;;;;;;;;;;;;;;;2190674;64;17479;-78
2022/12/13 15:05:40;;;;;;;;;;;;;;;;;;2186906;59;79358;-79
2022/12/13 15:08:19;;;;;;;;;;;;;;;;;;2193503;59;52774;-78
2022/12/13 15:10:55;;;;;;;;;;;;;;;;;;2193685;59;18398;-78
2022/12/13 15:13:37;;;;;;;;;;;;;;;;;;2194440;59;47932;-78
2022/12/13 15:16:16;;;;;;;;;;;;;;;;;;2190797;59;72985;-79
2022/12/13 15:19:06;;;;;;;;;;;;;;;;;;2194368;64;19512;-79
2022/12/13 15:21:40;;;;;;;;;;;;;;;;;;2193753;64;27156;-78
2022/12/13 15:24:28;;;;;;;;;;;;;;;;;;2187036;59;17073;-77
2022/12/13 15:27:02;;;;;;;;;;;;;;;;;;2193685;59;18892;-78
2022/12/13 15:29:37;;;;;;;;;;;;;;;;;;2193065;59;59382;-78
2022/12/13 15:32:17;;;;;;;;;;;;;;;;;;2194075;59;19040;-79
2022/12/13 15:34:51;;;;;;;;;;;;;;;;;;2193326;59;81879;-79
2022/12/13 15:37:31;;;;;;;;;;;;;;;;;;2192898;59;18826;-78
2022/12/13 15:40:11;;;;;;;;;;;;;;;;;;2192773;59;17765;-77
2022/12/13 15:42:46;;;;;;;;;;;;;;;;;;2192705;59;27006;-78
2022/12/13 15:45:21;;;;;;;;;;;;;;;;;;2189199;59;27802;-77
2022/12/13 15:47:56;;;;;;;;;;;;;;;;;;2191798;59;53922;-77
2022/12/13 15:50:34;;;;;;;;;;;;;;;;;;2192437;59;17837;-78
2022/12/13 15:53:19;;;;;;;;;;;;;;;;;;2190297;64;28573;-78
2022/12/13 15:55:56;;;;;;;;;;;;;;;;;;2191333;59;42299;-77
2022/12/13 15:58:31;;;;;;;;;;;;;;;;;;2193507;59;22432;-77
2022/12/13 16:01:05;;;;;;;;;;;;;;;;;;2191661;59;18288;-78
2022/12/13 16:03:43;;;;;;;;;;;;;;;;;;2192592;59;17795;-77
2022/12/13 16:06:20;;;;;;;;;;;;;;;;;;2193671;59;20198;-78
2022/12/13 16:08:56;;;;;;;;;;;;;;;;;;2193284;64;23234;-79
2022/12/13 16:11:35;;;;;;;;;;;;;;;;;;2193278;59;24116;-76
2022/12/13 16:14:27;;;;;;;;;;;;;;;;;;2192565;59;26845;-77
2022/12/13 16:17:03;;;;;;;;;;;;;;;;;;2190689;59;19088;-78
2022/12/13 16:19:37;;;;;;;;;;;;;;;;;;2193074;64;29613;-79
2022/12/13 16:22:10;;;;;;;;;;;;;;;;;;2193477;59;28302;-78
2022/12/13 16:24:43;;;;;;;;;;;;;;;;;;2194986;59;17965;-78
2022/12/13 16:27:20;;;;;;;;;;;;;;;;;;2193152;64;18662;-78
2022/12/13 16:29:53;;;;;;;;;;;;;;;;;;2189457;59;18508;-77
2022/12/13 16:32:27;;;;;;;;;;;;;;;;;;2192897;59;22871;-77
2022/12/13 16:35:00;;;;;;;;;;;;;;;;;;2192650;59;34538;-77
2022/12/13 16:37:34;;;;;;;;;;;;;;;;;;2193900;59;18281;-77
2022/12/13 16:40:21;;;;;;;;;;;;;;;;;;2193461;64;17222;-79
2022/12/13 16:42:58;;;;;;;;;;;;;;;;;;2191335;59;19672;-78
2022/12/13 16:45:33;;;;;;;;;;;;;;;;;;2192712;59;25437;-77
2022/12/13 16:48:08;;;;;;;;;;;;;;;;;;2157345;59;2347704;-78
2022/12/13 16:50:43;;;;;;;;;;;;;;;;;;2192055;60;20298;-76
2022/12/13 16:53:16;;;;;;;;;;;;;;;;;;2192116;64;44389;-79
2022/12/13 16:55:50;;;;;;;;;;;;;;;;;;2191664;64;27628;-78
2022/12/13 16:58:27;;;;;;;;;;;;;;;;;;2191759;59;22789;-78
2022/12/13 17:01:01;;;;;;;;;;;;;;;;;;2191904;59;25931;-77
2022/12/13 17:03:35;;;;;;;;;;;;;;;;;;2190962;59;24100;-77
2022/12/13 17:06:10;;;;;;;;;;;;;;;;;;2190880;59;24349;-76
2022/12/13 17:08:44;;;;;;;;;;;;;;;;;;2189173;59;19049;-76
2022/12/13 17:11:17;;;;;;;;;;;;;;;;;;2190909;59;17675;-78
2022/12/13 17:13:53;;;;;;;;;;;;;;;;;;2191187;59;25200;-79
2022/12/13 17:16:26;;;;;;;;;;;;;;;;;;2191843;59;17939;-78
2022/12/13 17:19:00;;;;;;;;;;;;;;;;;;2190677;64;22452;-76
2022/12/13 17:21:33;;;;;;;;;;;;;;;;;;2192176;64;18393;-77
2022/12/13 17:24:07;;;;;;;;;;;;;;;;;;2191930;64;21386;-78
2022/12/13 17:26:40;;;;;;;;;;;;;;;;;;2192624;59;19298;-78
2022/12/13 17:29:17;;;;;;;;;;;;;;;;;;2194209;59;17714;-77
2022/12/13 17:31:50;;;;;;;;;;;;;;;;;;2191980;59;48887;-78
2022/12/13 17:34:24;;;;;;;;;;;;;;;;;;2194382;59;17918;-77
2022/12/13 17:36:59;;;;;;;;;;;;;;;;;;2191583;59;28117;-76
2022/12/13 17:39:33;;;;;;;;;;;;;;;;;;2191360;59;24978;-78
2022/12/13 17:42:07;;;;;;;;;;;;;;;;;;2187905;67;19552;-78
2022/12/13 17:44:43;;;;;;;;;;;;;;;;;;2191169;59;31928;-77
2022/12/13 17:47:16;;;;;;;;;;;;;;;;;;2189100;59;120266;-78
2022/12/13 17:49:49;;;;;;;;;;;;;;;;;;2188759;59;66311;-78
2022/12/13 17:52:23;;;;;;;;;;;;;;;;;;2189053;64;23819;-78
2022/12/13 17:54:59;;;;;;;;;;;;;;;;;;2191149;64;20979;-77
2022/12/13 17:57:34;;;;;;;;;;;;;;;;;;2191041;59;21988;-77
2022/12/13 18:00:22;;;;;;;;;;;;;;;;;;2186948;64;72322;-77
2022/12/13 18:02:59;;;;;;;;;;;;;;;;;;2188219;59;21577;-77
2022/12/13 18:05:35;;;;;;;;;;;;;;;;;;2188586;59;63421;-77
2022/12/13 18:08:09;;;;;;;;;;;;;;;;;;2190658;59;38567;-77
2022/12/13 18:10:43;;;;;;;;;;;;;;;;;;2192554;59;34975;-77